Time;durP1;ratioP1;P1;durP2;ratioP2;P2;SDS_P1;SDS_P2;PMS_P1;PMS_P2;Temp;Humidity;BMP_temperature;BMP_pressure;BME280_temperature;BME280_humidity;BME280_pressure;Samples;Min_cycle;Max_cycle;Signal;HPM_P1;HPM_P2
2022/10/18 00:01:55;;;;;;;11.43;10.32;;;23.20;99.90;;;;;;6025176;29;89971;-64
2022/10/18 00:04:57;;;;;;;11.27;10.27;;;23.20;99.90;;;;;;6013834;29;89172;-64
2022/10/18 00:08:00;;;;;;;10.75;9.75;;;23.20;99.90;;;;;;6012671;29;89610;-64
2022/10/18 00:11:03;;;;;;;11.48;10.20;;;23.20;99.90;;;;;;6015757;29;88336;-65
2022/10/18 00:14:05;;;;;;;11.57;10.48;;;23.20;99.90;;;;;;6015449;29;89492;-64
2022/10/18 00:17:07;;;;;;;11.18;10.18;;;23.10;99.90;;;;;;6013945;29;89445;-64
2022/10/18 00:20:10;;;;;;;11.30;10.30;;;23.10;99.90;;;;;;6012644;29;89536;-65
2022/10/18 00:23:13;;;;;;;11.13;10.10;;;23.10;99.90;;;;;;6013947;29;89220;-64
2022/10/18 00:26:18;;;;;;;11.48;10.38;;;23.20;99.90;;;;;;6017980;29;89022;-64
2022/10/18 00:29:20;;;;;;;11.35;10.35;;;23.20;99.90;;;;;;6026640;29;89079;-64
2022/10/18 00:32:22;;;;;;;11.70;10.60;;;23.10;99.90;;;;;;6032492;29;89172;-64
2022/10/18 00:35:24;;;;;;;10.63;9.63;;;23.10;99.90;;;;;;6024217;29;89143;-64
2022/10/18 00:38:28;;;;;;;11.65;10.55;;;23.10;99.90;;;;;;6018124;29;89407;-64
2022/10/18 00:41:31;;;;;;;11.18;10.10;;;23.10;99.90;;;;;;6014110;29;87231;-64
2022/10/18 00:45:03;;;;;;;11.02;10.02;;;23.10;99.90;;;;;;6025624;29;89331;-64
2022/10/18 00:48:06;;;;;;;11.23;10.13;;;23.10;99.90;;;;;;6017907;29;89127;-64
2022/10/18 00:51:08;;;;;;;12.32;11.23;;;23.10;99.90;;;;;;6020030;29;89944;-64
2022/10/18 00:54:12;;;;;;;11.55;10.45;;;23.10;99.90;;;;;;6024289;29;89167;-64
2022/10/18 00:57:14;;;;;;;10.57;9.63;;;23.10;99.90;;;;;;6017292;29;89099;-64
2022/10/18 01:00:16;;;;;;;11.05;10.02;;;23.10;99.90;;;;;;6023689;29;89248;-64
2022/10/18 01:03:18;;;;;;;11.00;10.00;;;23.10;99.90;;;;;;6015254;29;89102;-64
2022/10/18 01:06:20;;;;;;;11.20;10.20;;;23.10;99.90;;;;;;6030375;28;89140;-64
2022/10/18 01:09:32;;;;;;;11.07;10.07;;;23.10;99.90;;;;;;6013275;29;89114;-64
2022/10/18 01:12:50;;;;;;;11.00;10.00;;;23.10;99.90;;;;;;6014238;29;88222;-65
2022/10/18 01:15:58;;;;;;;10.73;9.77;;;23.10;99.90;;;;;;6012123;29;89062;-64
2022/10/18 01:19:04;;;;;;;10.95;9.95;;;23.10;99.90;;;;;;6013198;29;89144;-64
2022/10/18 01:22:11;;;;;;;10.50;9.60;;;23.10;99.90;;;;;;6018429;29;90123;-64
2022/10/18 01:25:30;;;;;;;10.82;9.82;;;23.10;99.90;;;;;;6015265;29;89163;-64
2022/10/18 01:28:47;;;;;;;10.82;9.82;;;23.00;99.90;;;;;;6012462;29;89158;-64
2022/10/18 01:31:57;;;;;;;10.57;9.63;;;23.00;99.90;;;;;;6011099;29;88250;-64
2022/10/18 01:35:04;;;;;;;10.70;9.70;;;23.00;99.90;;;;;;6022216;29;89603;-64
2022/10/18 01:38:11;;;;;;;11.02;10.02;;;23.00;99.90;;;;;;6018800;29;89337;-64
2022/10/18 01:41:14;;;;;;;11.25;10.25;;;23.00;99.90;;;;;;6012752;29;89302;-65
2022/10/18 01:44:19;;;;;;;10.77;9.77;;;23.10;99.90;;;;;;6012252;29;88378;-64
2022/10/18 01:47:23;;;;;;;10.02;9.13;;;23.10;99.90;;;;;;6013582;29;89474;-64
2022/10/18 01:50:30;;;;;;;10.38;9.48;;;23.00;99.90;;;;;;6014767;29;88031;-64
2022/10/18 01:53:34;;;;;;;10.60;9.60;;;23.00;99.90;;;;;;6017520;29;90215;-64
2022/10/18 01:56:43;;;;;;;10.55;9.55;;;23.00;99.90;;;;;;6027494;29;89288;-64
2022/10/18 01:59:55;;;;;;;10.32;9.43;;;23.10;99.90;;;;;;6019745;29;89672;-64
2022/10/18 02:03:05;;;;;;;10.32;9.43;;;23.00;99.90;;;;;;6018429;29;88055;-64
2022/10/18 02:06:17;;;;;;;9.68;8.88;;;23.00;99.90;;;;;;6017072;29;89278;-64
2022/10/18 02:09:23;;;;;;;9.70;8.80;;;23.00;99.90;;;;;;6016795;29;89099;-64
2022/10/18 02:12:26;;;;;;;9.98;9.18;;;23.00;99.90;;;;;;6017047;29;89603;-64
2022/10/18 02:15:32;;;;;;;9.95;9.05;;;23.00;99.90;;;;;;6017538;29;88722;-65
2022/10/18 02:18:39;;;;;;;9.77;8.90;;;23.00;99.90;;;;;;6033919;29;89135;-64
2022/10/18 02:21:43;;;;;;;9.48;8.57;;;23.00;99.90;;;;;;6021837;29;89168;-65
2022/10/18 02:24:49;;;;;;;9.05;8.20;;;23.00;99.90;;;;;;6025682;29;90061;-64
2022/10/18 02:27:52;;;;;;;10.07;9.18;;;23.00;99.90;;;;;;6015096;29;88944;-64
2022/10/18 02:31:02;;;;;;;10.00;9.10;;;23.00;99.90;;;;;;6016812;29;89371;-64
2022/10/18 02:34:13;;;;;;;9.43;8.45;;;23.00;99.90;;;;;;6025668;29;88053;-65
2022/10/18 02:37:16;;;;;;;9.60;8.70;;;23.00;99.90;;;;;;6017124;29;89662;-65
2022/10/18 02:40:18;;;;;;;9.80;9.00;;;23.00;99.90;;;;;;6027495;28;89331;-65
2022/10/18 02:43:23;;;;;;;9.18;8.38;;;23.00;99.90;;;;;;6005822;29;89006;-65
2022/10/18 02:46:25;;;;;;;9.13;8.32;;;23.00;99.90;;;;;;6016512;29;88333;-65
2022/10/18 02:49:29;;;;;;;9.05;8.23;;;23.00;99.90;;;;;;6017448;28;89398;-65
2022/10/18 02:52:31;;;;;;;9.30;8.50;;;23.00;99.90;;;;;;6020403;29;89053;-65
2022/10/18 02:55:33;;;;;;;9.68;8.77;;;23.00;99.90;;;;;;6017893;29;90041;-64
2022/10/18 02:58:35;;;;;;;9.45;8.55;;;23.00;99.90;;;;;;6021634;28;87994;-65
2022/10/18 03:01:37;;;;;;;9.02;8.25;;;23.00;99.90;;;;;;6027873;29;89095;-64
2022/10/18 03:04:40;;;;;;;8.95;8.20;;;23.00;99.90;;;;;;6017036;29;89513;-64
2022/10/18 03:07:42;;;;;;;9.30;8.50;;;22.90;99.90;;;;;;6014418;29;89555;-65
2022/10/18 03:10:45;;;;;;;8.65;7.85;;;22.90;99.90;;;;;;6016225;29;89154;-65
2022/10/18 03:13:47;;;;;;;8.80;8.00;;;22.90;99.90;;;;;;6015989;29;89157;-65
2022/10/18 03:16:49;;;;;;;8.98;8.07;;;22.90;99.90;;;;;;6016059;29;88446;-64
2022/10/18 03:19:52;;;;;;;8.45;7.75;;;22.90;99.90;;;;;;6017384;29;89073;-64
2022/10/18 03:22:54;;;;;;;8.85;8.05;;;22.90;99.90;;;;;;6014802;29;89234;-64
2022/10/18 03:25:56;;;;;;;8.90;8.10;;;22.90;99.90;;;;;;6024686;28;88913;-64
2022/10/18 03:28:58;;;;;;;8.43;7.70;;;22.90;99.90;;;;;;6017001;29;89096;-65
2022/10/18 03:32:00;;;;;;;7.95;7.25;;;22.90;99.90;;;;;;6016209;29;88937;-64
2022/10/18 03:35:04;;;;;;;9.20;8.25;;;22.90;99.90;;;;;;6026657;29;89250;-64
2022/10/18 03:38:06;;;;;;;7.97;7.28;;;22.90;99.90;;;;;;6022809;29;89131;-64
2022/10/18 03:41:08;;;;;;;8.48;7.78;;;22.90;99.90;;;;;;6019957;28;89024;-64
2022/10/18 03:44:10;;;;;;;7.78;7.13;;;22.90;99.90;;;;;;6016702;29;89257;-64
2022/10/18 03:47:12;;;;;;;8.35;7.65;;;22.90;99.90;;;;;;6016492;29;88734;-64
2022/10/18 03:50:16;;;;;;;7.97;7.18;;;23.00;99.90;;;;;;6015975;29;89103;-65
2022/10/18 03:53:18;;;;;;;8.38;7.57;;;23.00;99.90;;;;;;6014857;29;87965;-65
2022/10/18 03:56:20;;;;;;;7.70;7.00;;;23.00;99.90;;;;;;6024140;29;90356;-64
2022/10/18 03:59:22;;;;;;;7.90;7.20;;;23.00;99.90;;;;;;6017230;29;90230;-65
2022/10/18 04:02:25;;;;;;;7.47;6.78;;;23.00;99.90;;;;;;6026533;28;89594;-64
2022/10/18 04:05:30;;;;;;;8.07;7.38;;;23.00;99.90;;;;;;6014425;29;89106;-65
2022/10/18 04:08:32;;;;;;;7.10;6.50;;;23.00;99.90;;;;;;6016087;29;89158;-64
2022/10/18 04:11:34;;;;;;;7.20;6.60;;;23.00;99.90;;;;;;6014990;29;89163;-65
2022/10/18 04:14:36;;;;;;;7.93;7.22;;;23.00;99.90;;;;;;6009759;29;90240;-65
2022/10/18 04:17:38;;;;;;;7.60;6.93;;;23.00;99.90;;;;;;6006033;29;88449;-65
2022/10/18 04:20:42;;;;;;;6.93;6.32;;;23.00;99.90;;;;;;6014630;29;88577;-65
2022/10/18 04:23:43;;;;;;;6.90;6.30;;;23.00;99.90;;;;;;6017598;28;89169;-65
2022/10/18 04:26:46;;;;;;;7.50;6.80;;;23.00;99.90;;;;;;6018115;28;90086;-65
2022/10/18 04:29:48;;;;;;;7.35;6.75;;;23.00;99.90;;;;;;6014149;29;89179;-64
2022/10/18 04:32:50;;;;;;;6.75;6.22;;;23.00;99.90;;;;;;6015759;29;88770;-64
2022/10/18 04:35:53;;;;;;;6.70;6.10;;;23.00;99.90;;;;;;6023411;29;89236;-64
2022/10/18 04:38:55;;;;;;;7.05;6.45;;;23.10;99.90;;;;;;6014674;29;89132;-64
2022/10/18 04:41:57;;;;;;;6.68;6.07;;;23.10;99.90;;;;;;6013481;29;89037;-64
2022/10/18 04:44:59;;;;;;;6.85;6.25;;;23.10;99.90;;;;;;6015144;29;89179;-64
2022/10/18 04:48:02;;;;;;;6.40;5.88;;;23.10;99.90;;;;;;6015483;29;88378;-64
2022/10/18 04:51:05;;;;;;;6.90;6.30;;;23.10;99.90;;;;;;6015037;29;89220;-65
2022/10/18 04:54:07;;;;;;;6.32;5.82;;;23.10;99.90;;;;;;6014163;29;89354;-65
2022/10/18 04:57:09;;;;;;;6.38;5.88;;;23.10;99.90;;;;;;6021882;29;90160;-65
2022/10/18 05:00:12;;;;;;;6.13;5.57;;;23.10;99.90;;;;;;6021167;29;89144;-64
2022/10/18 05:03:15;;;;;;;6.53;5.93;;;23.10;99.90;;;;;;6018911;29;88011;-64
2022/10/18 05:06:19;;;;;;;6.00;5.50;;;23.10;99.90;;;;;;6014218;29;89475;-64
2022/10/18 05:09:23;;;;;;;6.25;5.72;;;23.10;99.90;;;;;;6014986;29;89110;-64
2022/10/18 05:12:25;;;;;;;6.80;6.10;;;23.10;99.90;;;;;;6014461;29;89221;-65
2022/10/18 05:15:27;;;;;;;6.57;5.97;;;23.10;99.90;;;;;;6013866;29;89049;-64
2022/10/18 05:18:29;;;;;;;6.75;6.15;;;23.10;99.90;;;;;;6015450;29;88248;-65
2022/10/18 05:21:33;;;;;;;5.90;5.30;;;23.20;99.90;;;;;;6014602;29;89128;-65
2022/10/18 05:24:35;;;;;;;6.22;5.63;;;23.10;99.90;;;;;;6019057;29;89117;-65
2022/10/18 05:27:37;;;;;;;5.80;5.30;;;23.10;99.90;;;;;;6013288;29;90410;-64
2022/10/18 05:30:39;;;;;;;6.20;5.60;;;23.20;99.90;;;;;;6014460;29;89349;-65
2022/10/18 05:33:41;;;;;;;6.05;5.50;;;23.20;99.90;;;;;;6017143;29;89081;-65
2022/10/18 05:36:45;;;;;;;6.05;5.53;;;23.20;99.90;;;;;;6014774;29;89065;-64
2022/10/18 05:39:47;;;;;;;5.97;5.47;;;23.20;99.90;;;;;;6012983;29;88105;-65
2022/10/18 05:42:52;;;;;;;6.13;5.53;;;23.20;99.90;;;;;;6014507;29;89081;-64
2022/10/18 05:45:53;;;;;;;5.70;5.18;;;23.20;99.90;;;;;;6014155;29;89484;-65
2022/10/18 05:48:55;;;;;;;5.22;4.82;;;23.20;99.90;;;;;;6015011;29;88391;-65
2022/10/18 05:51:59;;;;;;;6.25;5.50;;;23.10;99.90;;;;;;6013505;29;89171;-65
2022/10/18 05:55:01;;;;;;;5.70;5.20;;;23.20;99.90;;;;;;6014084;29;89324;-65
2022/10/18 05:58:03;;;;;;;5.78;5.28;;;23.20;99.90;;;;;;6025376;29;89189;-65
2022/10/18 06:01:06;;;;;;;5.25;4.85;;;23.20;99.90;;;;;;6023195;29;89124;-65
2022/10/18 06:04:08;;;;;;;6.55;5.55;;;23.20;99.90;;;;;;6012877;29;89485;-65
2022/10/18 06:07:12;;;;;;;5.78;5.28;;;23.10;99.90;;;;;;6014537;29;89103;-65
2022/10/18 06:10:14;;;;;;;5.80;5.13;;;23.20;99.90;;;;;;6013543;29;89176;-65
2022/10/18 06:13:16;;;;;;;5.20;4.70;;;23.20;99.90;;;;;;6013103;29;89436;-65
2022/10/18 06:16:20;;;;;;;5.72;4.88;;;23.20;99.90;;;;;;6002971;29;89223;-65
2022/10/18 06:19:22;;;;;;;5.10;4.57;;;23.20;99.90;;;;;;6014337;29;88358;-65
2022/10/18 06:22:25;;;;;;;5.30;4.90;;;23.20;99.90;;;;;;6012748;29;89102;-65
2022/10/18 06:25:27;;;;;;;5.32;4.82;;;23.10;99.90;;;;;;6012625;29;89059;-65
2022/10/18 06:28:30;;;;;;;5.25;4.75;;;23.20;99.90;;;;;;6012660;29;89960;-65
2022/10/18 06:31:32;;;;;;;5.25;4.78;;;23.20;99.90;;;;;;6013087;29;89100;-65
2022/10/18 06:34:34;;;;;;;5.30;4.80;;;23.20;99.90;;;;;;6022113;29;89447;-65
2022/10/18 06:37:38;;;;;;;4.93;4.53;;;23.20;99.90;;;;;;6006581;29;89203;-65
2022/10/18 06:40:40;;;;;;;5.82;5.30;;;23.20;99.90;;;;;;6017342;29;89261;-65
2022/10/18 06:43:42;;;;;;;5.07;4.68;;;23.20;99.90;;;;;;6007507;29;89286;-65
2022/10/18 06:46:46;;;;;;;5.00;4.60;;;23.20;99.90;;;;;;6013791;29;89287;-65
2022/10/18 06:49:48;;;;;;;5.00;4.50;;;23.30;99.90;;;;;;6016907;29;88375;-65
2022/10/18 06:52:52;;;;;;;4.82;4.35;;;23.20;99.90;;;;;;6024650;29;89187;-65
2022/10/18 06:56:00;;;;;;;4.55;4.15;;;23.20;99.90;;;;;;6024587;29;87968;-65
2022/10/18 06:59:02;;;;;;;4.50;4.10;;;23.20;99.90;;;;;;6020917;29;90365;-65
2022/10/18 07:02:04;;;;;;;4.97;4.47;;;23.20;99.90;;;;;;6028421;29;89139;-65
2022/10/18 07:05:07;;;;;;;5.07;4.63;;;23.20;99.90;;;;;;6017284;29;89486;-65
2022/10/18 07:08:10;;;;;;;5.00;4.60;;;23.30;99.90;;;;;;6017390;29;89119;-65
2022/10/18 07:11:15;;;;;;;4.80;4.40;;;23.20;99.90;;;;;;6019351;28;89105;-65
2022/10/18 07:14:17;;;;;;;4.75;4.35;;;23.30;99.90;;;;;;6016987;29;89128;-65
2022/10/18 07:17:19;;;;;;;4.43;4.13;;;23.30;99.90;;;;;;6017053;29;89511;-65
2022/10/18 07:20:21;;;;;;;4.57;4.18;;;23.30;99.90;;;;;;6017415;29;88406;-65
2022/10/18 07:23:24;;;;;;;4.75;4.35;;;23.30;99.90;;;;;;6016387;29;89168;-64
2022/10/18 07:26:28;;;;;;;4.30;3.90;;;23.30;99.90;;;;;;6025781;29;88291;-65
2022/10/18 07:29:30;;;;;;;4.57;4.18;;;23.30;99.90;;;;;;6015572;29;90045;-64
2022/10/18 07:32:32;;;;;;;4.40;4.00;;;23.20;99.90;;;;;;6015205;29;89104;-65
2022/10/18 07:35:34;;;;;;;4.10;3.78;;;23.30;99.90;;;;;;6019092;29;89145;-65
2022/10/18 07:38:38;;;;;;;4.93;4.53;;;23.30;99.90;;;;;;6015296;29;89551;-65
2022/10/18 07:41:43;;;;;;;4.28;3.88;;;23.20;99.90;;;;;;6015890;29;89097;-65
2022/10/18 07:44:45;;;;;;;4.40;4.00;;;23.30;99.90;;;;;;6015450;29;89176;-64
2022/10/18 07:47:47;;;;;;;4.50;4.10;;;23.30;99.90;;;;;;6015371;29;89060;-65
2022/10/18 07:50:49;;;;;;;4.20;3.80;;;23.30;99.90;;;;;;6016572;29;88352;-65
2022/10/18 07:53:52;;;;;;;4.50;4.10;;;23.30;99.90;;;;;;6016464;29;89098;-65
2022/10/18 07:56:54;;;;;;;4.22;3.83;;;23.30;99.90;;;;;;6017882;29;89464;-65
2022/10/18 07:59:56;;;;;;;4.18;3.78;;;23.30;99.90;;;;;;6021364;29;89049;-64
2022/10/18 08:02:59;;;;;;;4.13;3.83;;;23.30;99.90;;;;;;6020700;28;89098;-65
2022/10/18 08:06:02;;;;;;;4.13;3.72;;;23.30;99.90;;;;;;6015058;29;89165;-65
2022/10/18 08:09:05;;;;;;;3.83;3.53;;;23.30;99.90;;;;;;6016370;29;89529;-64
2022/10/18 08:12:08;;;;;;;4.57;3.80;;;23.30;99.90;;;;;;6015337;29;89199;-65
2022/10/18 08:15:11;;;;;;;4.20;3.90;;;23.30;99.90;;;;;;6015612;29;89208;-64
2022/10/18 08:18:13;;;;;;;3.78;3.47;;;23.30;99.90;;;;;;6015115;29;90225;-64
2022/10/18 08:21:16;;;;;;;3.90;3.60;;;23.30;99.90;;;;;;6015847;29;88433;-65
2022/10/18 08:24:19;;;;;;;4.07;3.67;;;23.30;99.90;;;;;;6020004;29;89038;-64
2022/10/18 08:27:23;;;;;;;3.80;3.47;;;23.30;99.90;;;;;;6015794;29;89091;-64
2022/10/18 08:30:25;;;;;;;4.10;3.80;;;23.30;99.90;;;;;;6013771;29;90088;-64
2022/10/18 08:33:27;;;;;;;3.88;3.53;;;23.30;99.90;;;;;;6015373;29;89217;-65
2022/10/18 08:36:29;;;;;;;4.10;3.70;;;23.30;99.90;;;;;;6022668;28;89095;-64
2022/10/18 08:39:33;;;;;;;4.82;4.05;;;23.40;99.90;;;;;;6015091;29;89119;-64
2022/10/18 08:43:00;;;;;;;4.03;3.65;;;23.30;99.90;;;;;;6013432;29;89328;-64
2022/10/18 08:46:02;;;;;;;4.95;4.00;;;23.30;99.90;;;;;;6006623;29;89060;-64
2022/10/18 08:49:05;;;;;;;3.85;3.55;;;23.30;99.90;;;;;;6014539;29;89183;-65
2022/10/18 08:52:16;;;;;;;3.35;3.05;;;23.30;99.90;;;;;;6015632;29;88452;-64
2022/10/18 08:55:24;;;;;;;3.90;3.60;;;23.40;99.90;;;;;;6014555;29;89580;-64
2022/10/18 08:58:30;;;;;;;3.67;3.38;;;23.40;99.90;;;;;;6015252;29;88870;-64
2022/10/18 09:01:45;;;;;;;3.38;3.08;;;23.40;99.90;;;;;;6025838;29;90137;-64
2022/10/18 09:04:59;;;;;;;3.63;3.33;;;23.40;99.90;;;;;;6015107;29;89113;-65
2022/10/18 09:08:23;;;;;;;3.80;3.50;;;23.40;99.90;;;;;;6014191;29;89051;-64
2022/10/18 09:11:41;;;;;;;3.33;3.03;;;23.40;99.90;;;;;;6014209;29;89518;-65
2022/10/18 09:15:12;;;;;;;3.50;3.20;;;23.40;99.90;;;;;;6014514;29;88894;-64
2022/10/18 09:18:31;;;;;;;3.72;3.40;;;23.40;99.90;;;;;;6003698;29;88024;-65
2022/10/18 09:21:44;;;;;;;3.60;3.13;;;23.40;99.90;;;;;;6014648;29;88970;-65
2022/10/18 09:24:54;;;;;;;3.50;3.20;;;23.40;99.90;;;;;;6019321;29;88408;-65
2022/10/18 09:28:14;;;;;;;3.40;3.10;;;23.40;99.90;;;;;;6008591;29;89219;-65
2022/10/18 09:31:22;;;;;;;3.35;3.05;;;23.40;99.90;;;;;;6009745;29;89314;-65
2022/10/18 09:34:31;;;;;;;3.20;2.95;;;23.40;99.90;;;;;;6011666;29;90846;-65
2022/10/18 09:37:34;;;;;;;3.35;3.08;;;23.40;99.90;;;;;;6008385;29;89259;-64
2022/10/18 09:40:53;;;;;;;3.67;3.38;;;23.40;99.90;;;;;;6013930;29;89105;-64
2022/10/18 09:44:00;;;;;;;3.40;3.10;;;23.40;99.90;;;;;;6013521;29;89369;-65
2022/10/18 09:47:08;;;;;;;3.55;3.25;;;23.40;99.90;;;;;;6014094;29;89038;-65
2022/10/18 09:50:22;;;;;;;3.50;3.20;;;23.40;99.90;;;;;;6014204;29;89102;-65
2022/10/18 09:53:34;;;;;;;3.33;3.03;;;23.40;99.90;;;;;;6013410;29;89128;-64
2022/10/18 09:56:41;;;;;;;3.70;3.40;;;23.40;99.90;;;;;;6014258;29;88715;-65
2022/10/18 09:59:48;;;;;;;3.10;2.80;;;23.40;99.90;;;;;;6014860;29;89190;-65
2022/10/18 10:02:50;;;;;;;3.40;3.10;;;23.40;99.90;;;;;;6016997;29;89090;-65
2022/10/18 10:06:03;;;;;;;3.53;3.22;;;23.40;99.90;;;;;;6013789;29;90399;-65
2022/10/18 10:09:07;;;;;;;3.05;2.75;;;23.40;99.90;;;;;;6013022;29;89075;-64
2022/10/18 10:12:27;;;;;;;3.50;3.20;;;23.40;99.90;;;;;;6016687;29;88081;-65
2022/10/18 10:15:30;;;;;;;3.22;2.97;;;23.40;99.90;;;;;;6017695;29;88241;-64
2022/10/18 10:18:34;;;;;;;4.25;3.65;;;23.50;99.90;;;;;;6015891;29;89038;-65
2022/10/18 10:21:40;;;;;;;3.30;3.00;;;23.40;99.90;;;;;;6018068;29;88495;-65
2022/10/18 10:24:48;;;;;;;3.33;3.03;;;23.40;99.90;;;;;;6018101;29;89217;-64
2022/10/18 10:27:51;;;;;;;3.28;3.00;;;23.50;99.90;;;;;;6018652;28;87187;-64
2022/10/18 10:30:54;;;;;;;3.20;3.00;;;23.40;99.90;;;;;;6017739;29;89074;-64
2022/10/18 10:34:00;;;;;;;3.10;2.80;;;23.50;99.90;;;;;;6020182;29;88832;-64
2022/10/18 10:37:04;;;;;;;3.22;3.00;;;23.50;99.90;;;;;;6019202;29;90096;-64
2022/10/18 10:40:12;;;;;;;3.25;3.00;;;23.50;99.90;;;;;;6017005;29;88945;-64
2022/10/18 10:43:18;;;;;;;2.97;2.78;;;23.40;99.90;;;;;;6016834;29;89175;-64
2022/10/18 10:46:22;;;;;;;2.90;2.70;;;23.50;99.90;;;;;;6016735;29;89138;-64
2022/10/18 10:49:27;;;;;;;3.20;2.90;;;23.40;99.90;;;;;;6016710;29;89188;-65
2022/10/18 10:52:30;;;;;;;3.30;3.00;;;23.50;99.90;;;;;;6017820;29;88256;-64
2022/10/18 10:55:35;;;;;;;3.33;3.03;;;23.50;99.90;;;;;;6015838;29;89163;-64
2022/10/18 10:58:40;;;;;;;3.45;3.10;;;23.50;99.90;;;;;;6017942;29;88411;-65
2022/10/18 11:01:44;;;;;;;3.40;3.10;;;23.50;99.90;;;;;;6027145;29;89302;-64
2022/10/18 11:04:47;;;;;;;3.20;2.90;;;23.50;99.90;;;;;;6017529;29;89349;-64
2022/10/18 11:07:54;;;;;;;3.53;2.83;;;23.50;99.90;;;;;;6014828;29;88853;-64
2022/10/18 11:11:09;;;;;;;3.22;2.92;;;23.50;99.90;;;;;;6015974;29;89397;-64
2022/10/18 11:14:23;;;;;;;3.25;3.03;;;23.50;99.90;;;;;;6015876;29;89607;-64
2022/10/18 11:17:34;;;;;;;3.05;2.85;;;23.50;99.90;;;;;;6015463;29;89109;-64
2022/10/18 11:20:41;;;;;;;3.15;2.95;;;23.50;99.90;;;;;;6016321;29;89235;-65
2022/10/18 11:23:44;;;;;;;3.55;3.22;;;23.50;99.90;;;;;;6005146;29;89140;-65
2022/10/18 11:26:52;;;;;;;3.20;2.90;;;23.50;99.90;;;;;;6017277;29;88347;-65
2022/10/18 11:30:16;;;;;;;3.30;3.00;;;23.50;99.90;;;;;;6016472;29;88264;-65
2022/10/18 11:33:28;;;;;;;3.30;3.00;;;23.50;99.90;;;;;;6015813;29;89185;-65
2022/10/18 11:36:38;;;;;;;3.53;3.22;;;23.50;99.90;;;;;;6014826;29;90138;-64
2022/10/18 11:39:53;;;;;;;3.10;2.90;;;23.50;99.90;;;;;;6016069;29;90273;-65
2022/10/18 11:43:06;;;;;;;3.13;2.92;;;23.50;99.90;;;;;;6007005;29;89070;-65
2022/10/18 11:46:14;;;;;;;3.28;2.97;;;23.50;99.90;;;;;;6015998;29;88029;-65
2022/10/18 11:49:31;;;;;;;3.10;2.90;;;23.50;99.90;;;;;;6006589;29;89050;-65
2022/10/18 11:52:43;;;;;;;3.08;2.78;;;23.50;99.90;;;;;;6006578;29;89056;-65
2022/10/18 11:55:59;;;;;;;3.20;2.90;;;23.50;99.90;;;;;;6007604;29;89517;-65
2022/10/18 11:59:19;;;;;;;2.85;2.65;;;23.50;99.90;;;;;;6006808;29;89177;-65
2022/10/18 12:02:44;;;;;;;3.38;3.08;;;23.50;99.90;;;;;;6006525;29;88765;-64
2022/10/18 12:05:50;;;;;;;3.10;2.80;;;23.50;99.90;;;;;;6015384;29;87982;-64
2022/10/18 12:08:58;;;;;;;3.20;2.90;;;23.50;99.90;;;;;;6015545;29;89461;-65
2022/10/18 12:12:07;;;;;;;3.40;3.10;;;23.50;99.90;;;;;;6014936;29;88918;-64
2022/10/18 12:15:18;;;;;;;3.50;3.20;;;23.50;99.90;;;;;;6014382;29;89436;-64
2022/10/18 12:18:25;;;;;;;3.03;2.80;;;23.50;99.90;;;;;;6006229;29;89103;-64
2022/10/18 12:21:31;;;;;;;3.05;2.85;;;23.50;99.90;;;;;;6010875;29;89346;-64
2022/10/18 12:24:35;;;;;;;3.33;2.70;;;23.50;99.90;;;;;;6014141;29;89168;-64
2022/10/18 12:27:43;;;;;;;3.08;2.80;;;23.50;99.90;;;;;;6015824;29;89444;-65
2022/10/18 12:30:55;;;;;;;3.35;3.05;;;23.50;99.90;;;;;;6015403;29;89129;-64
2022/10/18 12:34:02;;;;;;;2.78;2.58;;;23.50;99.90;;;;;;6019282;29;88761;-65
2022/10/18 12:37:20;;;;;;;2.85;2.65;;;23.50;99.90;;;;;;6018748;29;89570;-64
2022/10/18 12:40:29;;;;;;;3.15;2.90;;;23.50;99.90;;;;;;6014825;29;89148;-65
2022/10/18 12:43:35;;;;;;;3.10;2.80;;;23.50;99.90;;;;;;6014067;29;90093;-65
2022/10/18 12:46:45;;;;;;;3.00;2.70;;;23.50;99.90;;;;;;6013202;29;88275;-65
2022/10/18 12:49:56;;;;;;;2.72;2.53;;;23.50;99.90;;;;;;6015624;29;89173;-65
2022/10/18 12:53:06;;;;;;;3.05;2.85;;;23.50;99.90;;;;;;6014306;29;89940;-65
2022/10/18 12:56:40;;;;;;;3.10;2.80;;;23.50;99.90;;;;;;6015556;29;88037;-65
2022/10/18 12:59:43;;;;;;;2.97;2.75;;;23.50;99.90;;;;;;6018577;29;89089;-65
2022/10/18 13:02:45;;;;;;;3.00;2.80;;;23.50;99.90;;;;;;6021898;28;87973;-65
2022/10/18 13:05:58;;;;;;;2.92;2.72;;;23.50;99.90;;;;;;6013879;29;88353;-64
2022/10/18 13:09:21;;;;;;;2.95;2.75;;;23.50;99.90;;;;;;6014973;29;89153;-65
2022/10/18 13:12:50;;;;;;;2.80;2.60;;;23.50;99.90;;;;;;6014965;29;89403;-65
2022/10/18 13:15:59;;;;;;;2.90;2.70;;;23.50;99.90;;;;;;6013204;29;90436;-64
2022/10/18 13:19:17;;;;;;;2.80;2.40;;;23.50;99.90;;;;;;6014625;29;89095;-64
2022/10/18 13:22:34;;;;;;;2.70;2.50;;;23.50;99.90;;;;;;6015101;29;89246;-64
2022/10/18 13:25:51;;;;;;;3.00;2.70;;;23.50;99.90;;;;;;6015408;29;89124;-64
2022/10/18 13:29:01;;;;;;;2.85;2.65;;;23.50;99.90;;;;;;6001941;29;88956;-64
2022/10/18 13:32:17;;;;;;;3.03;2.78;;;23.50;99.90;;;;;;6004346;29;89172;-65
2022/10/18 13:35:48;;;;;;;2.70;2.50;;;23.50;99.90;;;;;;6019220;29;89185;-64
2022/10/18 13:39:02;;;;;;;3.05;2.63;;;23.50;99.90;;;;;;6013697;29;88465;-64
2022/10/18 13:42:30;;;;;;;2.78;2.58;;;23.50;99.90;;;;;;6013755;29;89212;-64
2022/10/18 13:45:53;;;;;;;3.03;2.72;;;23.50;99.90;;;;;;6012865;29;89107;-64
2022/10/18 13:48:59;;;;;;;2.80;2.60;;;23.50;99.90;;;;;;6012727;29;90227;-64
2022/10/18 13:52:11;;;;;;;2.60;2.40;;;23.50;99.90;;;;;;6014116;29;89397;-64
2022/10/18 13:55:36;;;;;;;3.00;2.80;;;23.50;99.90;;;;;;6013253;29;89146;-64
2022/10/18 13:58:48;;;;;;;2.80;2.60;;;23.50;99.90;;;;;;6014898;29;88014;-64
2022/10/18 14:02:05;;;;;;;2.90;2.70;;;23.50;99.90;;;;;;6025603;29;88915;-65
2022/10/18 14:05:28;;;;;;;3.10;2.80;;;23.50;99.90;;;;;;6014467;29;89206;-64
2022/10/18 14:08:36;;;;;;;3.15;2.90;;;23.50;99.90;;;;;;6003429;29;88088;-64
2022/10/18 14:11:42;;;;;;;2.53;2.33;;;23.50;99.90;;;;;;6003018;29;87660;-64
2022/10/18 14:14:50;;;;;;;3.03;2.83;;;23.50;99.90;;;;;;6014277;29;89128;-64
2022/10/18 14:17:57;;;;;;;2.67;2.47;;;23.50;99.90;;;;;;6014232;29;89117;-64
2022/10/18 14:21:03;;;;;;;3.03;2.83;;;23.50;99.90;;;;;;6011957;29;90126;-64
2022/10/18 14:24:14;;;;;;;2.80;2.60;;;23.40;99.90;;;;;;6018759;29;88037;-64
2022/10/18 14:27:18;;;;;;;2.92;2.67;;;23.40;99.90;;;;;;6013275;29;89068;-65
2022/10/18 14:30:22;;;;;;;3.10;2.80;;;23.40;99.90;;;;;;6013440;29;89334;-64
2022/10/18 14:33:32;;;;;;;2.95;2.72;;;23.40;99.90;;;;;;6014863;29;89410;-65
2022/10/18 14:36:40;;;;;;;2.88;2.67;;;23.50;99.90;;;;;;6022534;29;89137;-64
2022/10/18 14:39:42;;;;;;;3.28;2.97;;;23.40;99.90;;;;;;6012270;29;89149;-65
2022/10/18 14:42:48;;;;;;;3.03;2.83;;;23.40;99.90;;;;;;6014770;29;88410;-64
2022/10/18 14:45:52;;;;;;;2.65;2.45;;;23.40;99.90;;;;;;6013534;29;89254;-65
2022/10/18 14:48:56;;;;;;;2.80;2.60;;;23.40;99.90;;;;;;6000868;29;89095;-65
2022/10/18 14:52:00;;;;;;;2.72;2.53;;;23.40;99.90;;;;;;6012007;29;90088;-65
2022/10/18 14:55:02;;;;;;;2.80;2.60;;;23.40;99.90;;;;;;6012822;29;89643;-64
2022/10/18 14:58:13;;;;;;;2.80;2.60;;;23.40;99.90;;;;;;6018582;29;88015;-65
2022/10/18 15:01:19;;;;;;;2.83;2.63;;;23.40;99.90;;;;;;6027916;29;89135;-65
2022/10/18 15:04:23;;;;;;;2.60;2.40;;;23.40;99.90;;;;;;6017105;29;89451;-65
2022/10/18 15:07:28;;;;;;;2.65;2.45;;;23.40;99.90;;;;;;6016219;29;89233;-65
2022/10/18 15:10:32;;;;;;;2.95;2.65;;;23.40;99.90;;;;;;6016360;29;90734;-64
2022/10/18 15:13:46;;;;;;;2.95;2.65;;;23.40;99.90;;;;;;6017179;29;88280;-65
2022/10/18 15:16:55;;;;;;;3.08;2.78;;;23.40;99.90;;;;;;6016408;29;89333;-64
2022/10/18 15:19:59;;;;;;;2.88;2.67;;;23.40;99.90;;;;;;6015662;29;87897;-64
2022/10/18 15:23:21;;;;;;;2.72;2.53;;;23.40;99.90;;;;;;6015239;29;90070;-64
2022/10/18 15:26:28;;;;;;;2.60;2.40;;;23.40;99.90;;;;;;6021603;28;89080;-64
2022/10/18 15:29:35;;;;;;;2.70;2.50;;;23.40;99.90;;;;;;6016257;29;89172;-64
2022/10/18 15:32:46;;;;;;;2.80;2.60;;;23.40;99.90;;;;;;6015441;29;89060;-64
2022/10/18 15:35:49;;;;;;;2.55;2.35;;;23.40;99.90;;;;;;6027253;29;89098;-64
2022/10/18 15:38:51;;;;;;;2.40;2.20;;;23.40;99.90;;;;;;6016572;29;89239;-64
2022/10/18 15:41:55;;;;;;;2.65;2.45;;;23.40;99.90;;;;;;6014829;29;89449;-64
2022/10/18 15:44:57;;;;;;;2.58;2.38;;;23.40;99.90;;;;;;6017006;29;88414;-64
2022/10/18 15:48:03;;;;;;;3.00;2.70;;;23.40;99.90;;;;;;6016706;29;87992;-64
2022/10/18 15:51:07;;;;;;;2.92;2.70;;;23.40;99.90;;;;;;6015811;29;88026;-64
2022/10/18 15:54:18;;;;;;;2.80;2.60;;;23.40;99.90;;;;;;6015743;29;90164;-64
2022/10/18 15:57:20;;;;;;;3.03;2.78;;;23.40;99.90;;;;;;6015062;29;89344;-64
2022/10/18 16:00:22;;;;;;;2.67;2.47;;;23.40;99.90;;;;;;6025254;29;89094;-65
2022/10/18 16:03:27;;;;;;;2.55;2.35;;;23.40;99.90;;;;;;6016345;28;88075;-65
2022/10/18 16:06:28;;;;;;;2.70;2.50;;;23.40;99.90;;;;;;6015466;29;89354;-65
2022/10/18 16:09:31;;;;;;;2.65;2.45;;;23.50;99.90;;;;;;6015363;29;89202;-64